sensor_id;sensor_type;location;lat;lon;timestamp;pressure;altitude;pressure_sealevel;temperature;humidity
43436;BME280;36399;51.444;-2.018;2022-08-19T00:01:33;100212.41;;;17.89;100.00
43436;BME280;36399;51.444;-2.018;2022-08-19T00:04:03;100212.44;;;17.87;100.00
43436;BME280;36399;51.444;-2.018;2022-08-19T00:06:30;100207.94;;;17.91;100.00
43436;BME280;36399;51.444;-2.018;2022-08-19T00:08:58;100215.84;;;17.94;100.00
43436;BME280;36399;51.444;-2.018;2022-08-19T00:11:26;100208.78;;;17.93;100.00
43436;BME280;36399;51.444;-2.018;2022-08-19T00:13:54;100203.41;;;17.96;100.00
43436;BME280;36399;51.444;-2.018;2022-08-19T00:16:22;100208.72;;;17.96;100.00
43436;BME280;36399;51.444;-2.018;2022-08-19T00:18:49;100208.72;;;17.96;100.00
43436;BME280;36399;51.444;-2.018;2022-08-19T00:21:15;100204.38;;;17.92;100.00
43436;BME280;36399;51.444;-2.018;2022-08-19T00:23:42;100216.84;;;17.88;100.00
43436;BME280;36399;51.444;-2.018;2022-08-19T00:26:10;100203.53;;;17.90;100.00
43436;BME280;36399;51.444;-2.018;2022-08-19T00:28:36;100214.22;;;17.87;100.00
43436;BME280;36399;51.444;-2.018;2022-08-19T00:31:04;100206.25;;;17.87;100.00
43436;BME280;36399;51.444;-2.018;2022-08-19T00:33:31;100205.28;;;17.91;100.00
43436;BME280;36399;51.444;-2.018;2022-08-19T00:36:02;100205.25;;;17.92;100.00
43436;BME280;36399;51.444;-2.018;2022-08-19T00:38:30;100212.41;;;17.89;100.00
43436;BME280;36399;51.444;-2.018;2022-08-19T00:40:56;100204.38;;;17.92;100.00
43436;BME280;36399;51.444;-2.018;2022-08-19T00:43:24;100215.03;;;17.90;100.00
43436;BME280;36399;51.444;-2.018;2022-08-19T00:45:52;100213.25;;;17.91;100.00
43436;BME280;36399;51.444;-2.018;2022-08-19T00:48:20;100213.22;;;17.92;100.00
43436;BME280;36399;51.444;-2.018;2022-08-19T00:50:48;100221.16;;;17.94;100.00
43436;BME280;36399;51.444;-2.018;2022-08-19T00:53:17;100226.31;;;18.02;100.00
43436;BME280;36399;51.444;-2.018;2022-08-19T00:55:47;100224.66;;;17.96;100.00
43436;BME280;36399;51.444;-2.018;2022-08-19T00:58:17;100224.38;;;18.08;100.00
43436;BME280;36399;51.444;-2.018;2022-08-19T01:00:46;100229.97;;;17.96;100.00
43436;BME280;36399;51.444;-2.018;2022-08-19T01:03:16;100224.81;;;17.88;100.00
43436;BME280;36399;51.444;-2.018;2022-08-19T01:05:43;100234.66;;;17.83;100.00
43436;BME280;36399;51.444;-2.018;2022-08-19T01:08:10;100234.84;;;17.74;100.00
43436;BME280;36399;51.444;-2.018;2022-08-19T01:10:43;100236.72;;;17.69;100.00
43436;BME280;36399;51.444;-2.018;2022-08-19T01:13:12;100235.84;;;17.65;100.00
43436;BME280;36399;51.444;-2.018;2022-08-19T01:15:45;100242.16;;;17.60;100.00
43436;BME280;36399;51.444;-2.018;2022-08-19T01:18:13;100237.78;;;17.57;100.00
43436;BME280;36399;51.444;-2.018;2022-08-19T01:20:43;100234.34;;;17.52;100.00
43436;BME280;36399;51.444;-2.018;2022-08-19T01:23:10;100227.31;;;17.50;100.00
43436;BME280;36399;51.444;-2.018;2022-08-19T01:25:52;100228.34;;;17.43;100.00
43436;BME280;36399;51.444;-2.018;2022-08-19T01:28:36;100220.41;;;17.41;100.00
43436;BME280;36399;51.444;-2.018;2022-08-19T01:31:02;100220.53;;;17.35;100.00
43436;BME280;36399;51.444;-2.018;2022-08-19T01:33:28;100225.88;;;17.32;100.00
43436;BME280;36399;51.444;-2.018;2022-08-19T01:36:09;100224.97;;;17.34;100.00
43436;BME280;36399;51.444;-2.018;2022-08-19T01:38:38;100233.88;;;17.30;100.00
43436;BME280;36399;51.444;-2.018;2022-08-19T01:41:05;100229.44;;;17.31;100.00
43436;BME280;36399;51.444;-2.018;2022-08-19T01:43:32;100229.44;;;17.31;100.00
43436;BME280;36399;51.444;-2.018;2022-08-19T01:45:59;100221.63;;;17.23;100.00
43436;BME280;36399;51.444;-2.018;2022-08-19T01:48:25;100226.13;;;17.20;100.00
43436;BME280;36399;51.444;-2.018;2022-08-19T01:50:51;100223.44;;;17.21;100.00
43436;BME280;36399;51.444;-2.018;2022-08-19T01:53:17;100232.31;;;17.19;100.00
43436;BME280;36399;51.444;-2.018;2022-08-19T01:55:43;100234.06;;;17.20;100.00
43436;BME280;36399;51.444;-2.018;2022-08-19T01:58:13;100241.06;;;17.24;100.00
43436;BME280;36399;51.444;-2.018;2022-08-19T02:00:40;100249.03;;;17.24;100.00
43436;BME280;36399;51.444;-2.018;2022-08-19T02:03:07;100240.13;;;17.28;100.00
43436;BME280;36399;51.444;-2.018;2022-08-19T02:05:34;100248.19;;;17.22;100.00
43436;BME280;36399;51.444;-2.018;2022-08-19T02:08:00;100245.59;;;17.19;100.00
43436;BME280;36399;51.444;-2.018;2022-08-19T02:10:27;100236.81;;;17.14;100.00
43436;BME280;36399;51.444;-2.018;2022-08-19T02:12:52;100225.34;;;17.12;100.00
43436;BME280;36399;51.444;-2.018;2022-08-19T02:15:20;100233.47;;;17.02;100.00
43436;BME280;36399;51.444;-2.018;2022-08-19T02:17:46;100234.47;;;16.95;100.00
43436;BME280;36399;51.444;-2.018;2022-08-19T02:20:13;100235.53;;;16.85;100.00
43436;BME280;36399;51.444;-2.018;2022-08-19T02:22:41;100240.97;;;16.78;100.00
43436;BME280;36399;51.444;-2.018;2022-08-19T02:25:10;100241.91;;;16.74;100.00
43436;BME280;36399;51.444;-2.018;2022-08-19T02:27:36;100246.38;;;16.70;100.00
43436;BME280;36399;51.444;-2.018;2022-08-19T02:30:06;100246.34;;;16.73;100.00
43436;BME280;36399;51.444;-2.018;2022-08-19T02:32:32;100253.50;;;16.65;100.00
43436;BME280;36399;51.444;-2.018;2022-08-19T02:34:59;100253.53;;;16.62;100.00
43436;BME280;36399;51.444;-2.018;2022-08-19T02:37:25;100254.41;;;16.62;100.00
43436;BME280;36399;51.444;-2.018;2022-08-19T02:40:09;100264.16;;;16.59;100.00
43436;BME280;36399;51.444;-2.018;2022-08-19T02:42:35;100266.00;;;16.54;100.00
43436;BME280;36399;51.444;-2.018;2022-08-19T02:45:01;100266.09;;;16.48;100.00
43436;BME280;36399;51.444;-2.018;2022-08-19T02:47:27;100260.94;;;16.38;100.00
43436;BME280;36399;51.444;-2.018;2022-08-19T02:49:53;100258.31;;;16.37;100.00
43436;BME280;36399;51.444;-2.018;2022-08-19T02:52:19;100264.75;;;16.19;100.00
43436;BME280;36399;51.444;-2.018;2022-08-19T02:54:45;100257.56;;;16.27;100.00
43436;BME280;36399;51.444;-2.018;2022-08-19T02:57:11;100258.47;;;16.26;100.00
43436;BME280;36399;51.444;-2.018;2022-08-19T02:59:37;100260.28;;;16.23;100.00
43436;BME280;36399;51.444;-2.018;2022-08-19T03:02:03;100272.75;;;16.15;100.00
43436;BME280;36399;51.444;-2.018;2022-08-19T03:04:29;100263.03;;;16.12;100.00
43436;BME280;36399;51.444;-2.018;2022-08-19T03:06:55;100268.47;;;16.03;100.00
43436;BME280;36399;51.444;-2.018;2022-08-19T03:09:21;100272.00;;;16.02;100.00
43436;BME280;36399;51.444;-2.018;2022-08-19T03:11:47;100270.34;;;15.95;100.00
43436;BME280;36399;51.444;-2.018;2022-08-19T03:14:13;100270.34;;;15.93;100.00
43436;BME280;36399;51.444;-2.018;2022-08-19T03:16:45;100268.69;;;15.86;100.00
43436;BME280;36399;51.444;-2.018;2022-08-19T03:19:12;100272.28;;;15.81;100.00
43436;BME280;36399;51.444;-2.018;2022-08-19T03:21:39;100275.03;;;15.71;100.00
43436;BME280;36399;51.444;-2.018;2022-08-19T03:24:07;100274.13;;;15.72;100.00
43436;BME280;36399;51.444;-2.018;2022-08-19T03:26:37;100281.97;;;15.80;100.00
43436;BME280;36399;51.444;-2.018;2022-08-19T03:29:04;100279.22;;;15.91;100.00
43436;BME280;36399;51.444;-2.018;2022-08-19T03:31:31;100277.38;;;15.97;100.00
43436;BME280;36399;51.444;-2.018;2022-08-19T03:33:57;100284.38;;;16.00;100.00
43436;BME280;36399;51.444;-2.018;2022-08-19T03:36:25;100276.41;;;16.03;100.00
43436;BME280;36399;51.444;-2.018;2022-08-19T03:38:55;100276.44;;;16.00;100.00
43436;BME280;36399;51.444;-2.018;2022-08-19T03:41:25;100270.25;;;16.01;100.00
43436;BME280;36399;51.444;-2.018;2022-08-19T03:43:52;100280.81;;;16.04;100.00
43436;BME280;36399;51.444;-2.018;2022-08-19T03:46:23;100280.88;;;15.98;100.00
43436;BME280;36399;51.444;-2.018;2022-08-19T03:48:51;100282.78;;;15.87;100.00
43436;BME280;36399;51.444;-2.018;2022-08-19T03:51:21;100285.53;;;15.79;100.00
43436;BME280;36399;51.444;-2.018;2022-08-19T03:53:48;100283.84;;;15.72;100.00
43436;BME280;36399;51.444;-2.018;2022-08-19T03:56:14;100282.19;;;15.63;100.00
43436;BME280;36399;51.444;-2.018;2022-08-19T03:58:41;100283.94;;;15.60;100.00
43436;BME280;36399;51.444;-2.018;2022-08-19T04:01:11;100277.78;;;15.56;100.00
43436;BME280;36399;51.444;-2.018;2022-08-19T04:03:38;100291.00;;;15.59;100.00
43436;BME280;36399;51.444;-2.018;2022-08-19T04:06:13;100291.03;;;15.61;100.00
43436;BME280;36399;51.444;-2.018;2022-08-19T04:08:40;100294.44;;;15.70;100.00
43436;BME280;36399;51.444;-2.018;2022-08-19T04:11:09;100290.13;;;15.63;100.00
43436;BME280;36399;51.444;-2.018;2022-08-19T04:13:35;100295.34;;;15.69;100.00
43436;BME280;36399;51.444;-2.018;2022-08-19T04:16:02;100303.25;;;15.71;100.00
43436;BME280;36399;51.444;-2.018;2022-08-19T04:18:29;100304.09;;;15.74;100.00
43436;BME280;36399;51.444;-2.018;2022-08-19T04:20:56;100305.00;;;15.73;100.00
43436;BME280;36399;51.444;-2.018;2022-08-19T04:23:23;100310.31;;;15.72;100.00
43436;BME280;36399;51.444;-2.018;2022-08-19T04:25:49;100319.09;;;15.74;100.00
43436;BME280;36399;51.444;-2.018;2022-08-19T04:28:15;100316.47;;;15.72;100.00
43436;BME280;36399;51.444;-2.018;2022-08-19T04:30:48;100319.00;;;15.83;100.00
43436;BME280;36399;51.444;-2.018;2022-08-19T04:33:16;100319.06;;;15.77;100.00
43436;BME280;36399;51.444;-2.018;2022-08-19T04:35:47;100320.00;;;15.73;100.00
43436;BME280;36399;51.444;-2.018;2022-08-19T04:38:15;100320.13;;;15.62;100.00
43436;BME280;36399;51.444;-2.018;2022-08-19T04:40:44;100315.72;;;15.55;100.00
43436;BME280;36399;51.444;-2.018;2022-08-19T04:43:29;100314.91;;;15.47;100.00
43436;BME280;36399;51.444;-2.018;2022-08-19T04:45:55;100319.25;;;15.56;100.00
43436;BME280;36399;51.444;-2.018;2022-08-19T04:48:22;100320.16;;;15.53;100.00
43436;BME280;36399;51.444;-2.018;2022-08-19T04:50:53;100322.84;;;15.48;100.00
43436;BME280;36399;51.444;-2.018;2022-08-19T04:53:29;100316.69;;;15.45;100.00
43436;BME280;36399;51.444;-2.018;2022-08-19T04:56:03;100327.25;;;15.48;100.00
43436;BME280;36399;51.444;-2.018;2022-08-19T04:58:29;100345.84;;;15.40;100.00
43436;BME280;36399;51.444;-2.018;2022-08-19T05:00:55;100329.97;;;15.39;100.00
43436;BME280;36399;51.444;-2.018;2022-08-19T05:03:21;100339.66;;;15.43;100.00
43436;BME280;36399;51.444;-2.018;2022-08-19T05:05:48;100344.84;;;15.52;100.00
43436;BME280;36399;51.444;-2.018;2022-08-19T05:08:16;100343.94;;;15.55;100.00
43436;BME280;36399;51.444;-2.018;2022-08-19T05:10:50;100346.56;;;15.62;100.00
43436;BME280;36399;51.444;-2.018;2022-08-19T05:13:18;100351.88;;;15.56;100.00
43436;BME280;36399;51.444;-2.018;2022-08-19T05:15:53;100354.53;;;15.61;100.00
43436;BME280;36399;51.444;-2.018;2022-08-19T05:18:20;100357.94;;;15.73;100.00
43436;BME280;36399;51.444;-2.018;2022-08-19T05:21:09;100357.09;;;15.68;100.00
43436;BME280;36399;51.444;-2.018;2022-08-19T05:23:53;100354.44;;;15.71;100.00
43436;BME280;36399;51.444;-2.018;2022-08-19T05:26:19;100361.56;;;15.57;100.00
43436;BME280;36399;51.444;-2.018;2022-08-19T05:28:45;100366.03;;;15.49;100.00
43436;BME280;36399;51.444;-2.018;2022-08-19T05:31:11;100368.72;;;15.46;100.00
43436;BME280;36399;51.444;-2.018;2022-08-19T05:33:38;100368.78;;;15.38;100.00
43436;BME280;36399;51.444;-2.018;2022-08-19T05:36:05;100372.34;;;15.36;100.00
43436;BME280;36399;51.444;-2.018;2022-08-19T05:38:34;100381.16;;;15.36;100.00
43436;BME280;36399;51.444;-2.018;2022-08-19T05:41:09;100397.03;;;15.33;100.00
43436;BME280;36399;51.444;-2.018;2022-08-19T05:43:36;100410.28;;;15.32;100.00
43436;BME280;36399;51.444;-2.018;2022-08-19T05:46:04;100413.75;;;15.40;100.00
43436;BME280;36399;51.444;-2.018;2022-08-19T05:48:32;100416.34;;;15.46;100.00
43436;BME280;36399;51.444;-2.018;2022-08-19T05:51:04;100417.19;;;15.51;100.00
43436;BME280;36399;51.444;-2.018;2022-08-19T05:53:30;100421.66;;;15.44;100.00
43436;BME280;36399;51.444;-2.018;2022-08-19T05:55:56;100428.72;;;15.42;100.00
43436;BME280;36399;51.444;-2.018;2022-08-19T05:58:22;100430.47;;;15.45;100.00
43436;BME280;36399;51.444;-2.018;2022-08-19T06:00:49;100434.94;;;15.37;100.00
43436;BME280;36399;51.444;-2.018;2022-08-19T06:03:15;100438.47;;;15.36;100.00
43436;BME280;36399;51.444;-2.018;2022-08-19T06:05:41;100431.41;;;15.35;100.00
43436;BME280;36399;51.444;-2.018;2022-08-19T06:08:07;100433.22;;;15.31;100.00
43436;BME280;36399;51.444;-2.018;2022-08-19T06:10:33;100438.50;;;15.33;100.00
43436;BME280;36399;51.444;-2.018;2022-08-19T06:12:59;100442.06;;;15.26;100.00
43436;BME280;36399;51.444;-2.018;2022-08-19T06:15:25;100450.00;;;15.24;100.00
43436;BME280;36399;51.444;-2.018;2022-08-19T06:17:53;100449.09;;;15.27;100.00
43436;BME280;36399;51.444;-2.018;2022-08-19T06:20:19;100443.78;;;15.30;100.00
43436;BME280;36399;51.444;-2.018;2022-08-19T06:22:49;100447.34;;;15.26;100.00
43436;BME280;36399;51.444;-2.018;2022-08-19T06:25:17;100442.94;;;15.25;100.00
43436;BME280;36399;51.444;-2.018;2022-08-19T06:27:44;100438.53;;;15.27;100.00
43436;BME280;36399;51.444;-2.018;2022-08-19T06:30:10;100449.09;;;15.30;100.00
43436;BME280;36399;51.444;-2.018;2022-08-19T06:32:37;100452.59;;;15.32;100.00
43436;BME280;36399;51.444;-2.018;2022-08-19T06:35:04;100455.22;;;15.33;100.00
43436;BME280;36399;51.444;-2.018;2022-08-19T06:37:30;100459.69;;;15.28;100.00
43436;BME280;36399;51.444;-2.018;2022-08-19T06:39:56;100457.00;;;15.33;100.00
43436;BME280;36399;51.444;-2.018;2022-08-19T06:42:22;100452.56;;;15.38;100.00
43436;BME280;36399;51.444;-2.018;2022-08-19T06:44:48;100460.50;;;15.35;100.00
43436;BME280;36399;51.444;-2.018;2022-08-19T06:47:18;100466.66;;;15.37;100.00
43436;BME280;36399;51.444;-2.018;2022-08-19T06:49:45;100473.69;;;15.41;100.00
43436;BME280;36399;51.444;-2.018;2022-08-19T06:52:11;100481.63;;;15.41;100.00
43436;BME280;36399;51.444;-2.018;2022-08-19T06:54:38;100487.84;;;15.37;100.00
43436;BME280;36399;51.444;-2.018;2022-08-19T06:57:05;100490.50;;;15.35;100.00
43436;BME280;36399;51.444;-2.018;2022-08-19T06:59:32;100494.91;;;15.35;100.00
43436;BME280;36399;51.444;-2.018;2022-08-19T07:02:02;100501.94;;;15.36;100.00
43436;BME280;36399;51.444;-2.018;2022-08-19T07:04:31;100513.41;;;15.35;100.00
43436;BME280;36399;51.444;-2.018;2022-08-19T07:07:07;100516.91;;;15.38;100.00
43436;BME280;36399;51.444;-2.018;2022-08-19T07:09:36;100519.56;;;15.40;100.00
43436;BME280;36399;51.444;-2.018;2022-08-19T07:12:04;100529.28;;;15.36;100.00
43436;BME280;36399;51.444;-2.018;2022-08-19T07:14:33;100540.72;;;15.41;100.00
43436;BME280;36399;51.444;-2.018;2022-08-19T07:17:07;100538.91;;;15.46;100.00
43436;BME280;36399;51.444;-2.018;2022-08-19T07:19:34;100543.28;;;15.52;100.00
43436;BME280;36399;51.444;-2.018;2022-08-19T07:22:02;100546.78;;;15.57;100.00
43436;BME280;36399;51.444;-2.018;2022-08-19T07:24:29;100553.00;;;15.62;100.00
43436;BME280;36399;51.444;-2.018;2022-08-19T07:26:57;100563.53;;;15.68;100.00
43436;BME280;36399;51.444;-2.018;2022-08-19T07:29:28;100562.63;;;15.72;100.00
43436;BME280;36399;51.444;-2.018;2022-08-19T07:31:55;100574.06;;;15.74;100.00
43436;BME280;36399;51.444;-2.018;2022-08-19T07:34:23;100572.28;;;15.80;100.00
43436;BME280;36399;51.444;-2.018;2022-08-19T07:36:49;100562.50;;;15.88;100.00
43436;BME280;36399;51.444;-2.018;2022-08-19T07:39:28;100564.25;;;15.90;100.00
43436;BME280;36399;51.444;-2.018;2022-08-19T07:41:55;100562.44;;;15.95;100.00
43436;BME280;36399;51.444;-2.018;2022-08-19T07:44:22;100565.94;;;16.00;100.00
43436;BME280;36399;51.444;-2.018;2022-08-19T07:46:52;100571.16;;;16.11;100.00
43436;BME280;36399;51.444;-2.018;2022-08-19T07:49:20;100567.59;;;16.18;100.00
43436;BME280;36399;51.444;-2.018;2022-08-19T07:51:59;100572.78;;;16.29;100.00
43436;BME280;36399;51.444;-2.018;2022-08-19T07:54:28;100571.91;;;16.28;100.00
43436;BME280;36399;51.444;-2.018;2022-08-19T07:56:55;100582.47;;;16.33;100.00
43436;BME280;36399;51.444;-2.018;2022-08-19T07:59:22;100578.03;;;16.35;100.00
43436;BME280;36399;51.444;-2.018;2022-08-19T08:01:50;100580.63;;;16.39;100.00
43436;BME280;36399;51.444;-2.018;2022-08-19T08:04:17;100578.81;;;16.45;100.00
43436;BME280;36399;51.444;-2.018;2022-08-19T08:07:03;100583.13;;;16.55;100.00
43436;BME280;36399;51.444;-2.018;2022-08-19T08:09:48;100578.66;;;16.66;100.00
43436;BME280;36399;51.444;-2.018;2022-08-19T08:12:26;100585.69;;;16.70;100.00
43436;BME280;36399;51.444;-2.018;2022-08-19T08:14:56;100586.53;;;16.74;100.00
43436;BME280;36399;51.444;-2.018;2022-08-19T08:17:25;100585.59;;;16.79;100.00
43436;BME280;36399;51.444;-2.018;2022-08-19T08:19:52;100589.06;;;16.84;100.00
43436;BME280;36399;51.444;-2.018;2022-08-19T08:22:20;100584.53;;;16.95;100.00
43436;BME280;36399;51.444;-2.018;2022-08-19T08:25:17;100588.03;;;16.97;100.00
43436;BME280;36399;51.444;-2.018;2022-08-19T08:27:45;100588.97;;;16.93;100.00
43436;BME280;36399;51.444;-2.018;2022-08-19T08:30:22;100602.22;;;16.95;100.00
43436;BME280;36399;51.444;-2.018;2022-08-19T08:32:50;100611.91;;;16.96;100.00
43436;BME280;36399;51.444;-2.018;2022-08-19T08:35:19;100609.19;;;17.03;100.00
43436;BME280;36399;51.444;-2.018;2022-08-19T08:37:46;100610.81;;;17.15;100.00
43436;BME280;36399;51.444;-2.018;2022-08-19T08:42:57;100618.72;;;17.23;100.00
43436;BME280;36399;51.444;-2.018;2022-08-19T08:45:28;100625.84;;;17.18;100.00
43436;BME280;36399;51.444;-2.018;2022-08-19T08:47:57;100630.25;;;17.19;100.00
43436;BME280;36399;51.444;-2.018;2022-08-19T08:50:34;100622.19;;;17.28;100.00
43436;BME280;36399;51.444;-2.018;2022-08-19T08:53:05;100620.44;;;17.27;100.00
43436;BME280;36399;51.444;-2.018;2022-08-19T08:55:32;100628.44;;;17.22;100.00
43436;BME280;36399;51.444;-2.018;2022-08-19T08:58:05;100623.97;;;17.27;100.00
43436;BME280;36399;51.444;-2.018;2022-08-19T09:00:33;100632.88;;;17.22;100.00
43436;BME280;36399;51.444;-2.018;2022-08-19T09:03:01;100631.00;;;17.30;100.00
43436;BME280;36399;51.444;-2.018;2022-08-19T09:05:45;100634.38;;;17.44;100.00
43436;BME280;36399;51.444;-2.018;2022-08-19T09:08:24;100636.97;;;17.47;100.00
43436;BME280;36399;51.444;-2.018;2022-08-19T09:10:55;100629.91;;;17.46;100.00
43436;BME280;36399;51.444;-2.018;2022-08-19T09:16:02;100630.66;;;17.57;100.00
43436;BME280;36399;51.444;-2.018;2022-08-19T09:18:58;100629.66;;;17.64;100.00
43436;BME280;36399;51.444;-2.018;2022-08-19T09:21:26;100614.63;;;17.63;100.00
43436;BME280;36399;51.444;-2.018;2022-08-19T09:23:53;100634.09;;;17.67;100.00
43436;BME280;36399;51.444;-2.018;2022-08-19T09:26:22;100641.91;;;17.79;100.00
43436;BME280;36399;51.444;-2.018;2022-08-19T09:28:51;100637.44;;;17.83;100.00
43436;BME280;36399;51.444;-2.018;2022-08-19T09:31:23;100638.38;;;17.79;100.00
43436;BME280;36399;51.444;-2.018;2022-08-19T09:33:50;100625.72;;;17.97;100.00
43436;BME280;36399;51.444;-2.018;2022-08-19T09:36:19;100630.97;;;18.01;100.00
43436;BME280;36399;51.444;-2.018;2022-08-19T09:38:45;100630.84;;;18.10;100.00
43436;BME280;36399;51.444;-2.018;2022-08-19T09:41:17;100630.41;;;18.37;100.00
43436;BME280;36399;51.444;-2.018;2022-08-19T09:43:49;100632.94;;;18.45;100.00
43436;BME280;36399;51.444;-2.018;2022-08-19T09:46:18;100631.09;;;18.50;100.00
43436;BME280;36399;51.444;-2.018;2022-08-19T09:48:47;100636.16;;;18.65;100.00
43436;BME280;36399;51.444;-2.018;2022-08-19T09:51:24;100638.00;;;18.62;100.00
43436;BME280;36399;51.444;-2.018;2022-08-19T09:53:54;100627.72;;;18.91;100.00
43436;BME280;36399;51.444;-2.018;2022-08-19T09:56:21;100632.94;;;18.97;100.00
43436;BME280;36399;51.444;-2.018;2022-08-19T09:58:48;100624.94;;;19.43;100.00
43436;BME280;36399;51.444;-2.018;2022-08-19T10:01:19;100634.47;;;20.34;100.00
43436;BME280;36399;51.444;-2.018;2022-08-19T10:03:51;100628.44;;;21.29;100.00
43436;BME280;36399;51.444;-2.018;2022-08-19T10:06:19;100629.06;;;21.39;100.00
43436;BME280;36399;51.444;-2.018;2022-08-19T10:08:46;100620.19;;;21.97;100.00
43436;BME280;36399;51.444;-2.018;2022-08-19T10:11:13;100634.66;;;21.90;100.00
43436;BME280;36399;51.444;-2.018;2022-08-19T10:13:43;100634.06;;;22.38;100.00
43436;BME280;36399;51.444;-2.018;2022-08-19T10:16:14;100638.00;;;23.55;100.00
43436;BME280;36399;51.444;-2.018;2022-08-19T10:18:40;100650.47;;;22.54;100.00
43436;BME280;36399;51.444;-2.018;2022-08-19T10:21:24;100633.72;;;21.91;100.00
43436;BME280;36399;51.444;-2.018;2022-08-19T10:23:53;100626.72;;;23.46;100.00
43436;BME280;36399;51.444;-2.018;2022-08-19T10:26:23;100634.00;;;24.34;100.00
43436;BME280;36399;51.444;-2.018;2022-08-19T10:28:50;100631.22;;;23.20;100.00
43436;BME280;36399;51.444;-2.018;2022-08-19T10:31:36;100646.50;;;24.12;100.00
43436;BME280;36399;51.444;-2.018;2022-08-19T10:34:03;100648.59;;;23.09;100.00
43436;BME280;36399;51.444;-2.018;2022-08-19T10:36:35;100645.19;;;24.22;100.00
43436;BME280;36399;51.444;-2.018;2022-08-19T10:39:05;100643.72;;;24.59;100.00
43436;BME280;36399;51.444;-2.018;2022-08-19T10:41:34;100642.38;;;24.48;100.00
43436;BME280;36399;51.444;-2.018;2022-08-19T10:44:04;100637.38;;;24.39;100.00
43436;BME280;36399;51.444;-2.018;2022-08-19T10:46:31;100638.09;;;24.21;100.00
43436;BME280;36399;51.444;-2.018;2022-08-19T10:48:59;100641.59;;;24.67;100.00
43436;BME280;36399;51.444;-2.018;2022-08-19T10:51:25;100627.53;;;25.23;100.00
43436;BME280;36399;51.444;-2.018;2022-08-19T10:54:10;100638.63;;;25.15;100.00
43436;BME280;36399;51.444;-2.018;2022-08-19T10:56:36;100631.13;;;24.81;100.00
43436;BME280;36399;51.444;-2.018;2022-08-19T10:59:20;100641.25;;;24.32;100.00
43436;BME280;36399;51.444;-2.018;2022-08-19T11:01:47;100635.00;;;23.38;100.00
43436;BME280;36399;51.444;-2.018;2022-08-19T11:04:14;100627.25;;;23.30;100.00
43436;BME280;36399;51.444;-2.018;2022-08-19T11:06:47;100636.06;;;22.03;100.00
43436;BME280;36399;51.444;-2.018;2022-08-19T11:09:15;100635.44;;;21.64;100.00
43436;BME280;36399;51.444;-2.018;2022-08-19T11:11:42;100634.69;;;21.28;100.00
43436;BME280;36399;51.444;-2.018;2022-08-19T11:14:13;100636.63;;;21.22;100.00
43436;BME280;36399;51.444;-2.018;2022-08-19T11:16:41;100638.09;;;21.35;100.00
43436;BME280;36399;51.444;-2.018;2022-08-19T11:19:10;100643.75;;;21.23;100.00
43436;BME280;36399;51.444;-2.018;2022-08-19T11:21:39;100647.03;;;21.00;100.00
43436;BME280;36399;51.444;-2.018;2022-08-19T11:24:11;100640.34;;;21.49;100.00
43436;BME280;36399;51.444;-2.018;2022-08-19T11:26:41;100646.97;;;22.24;100.00
43436;BME280;36399;51.444;-2.018;2022-08-19T11:29:09;100639.34;;;22.40;100.00
43436;BME280;36399;51.444;-2.018;2022-08-19T11:31:42;100652.84;;;22.63;100.00
43436;BME280;36399;51.444;-2.018;2022-08-19T11:34:12;100645.06;;;22.55;100.00
43436;BME280;36399;51.444;-2.018;2022-08-19T11:36:41;100635.72;;;22.95;100.00
43436;BME280;36399;51.444;-2.018;2022-08-19T11:39:10;100639.84;;;23.28;100.00
43436;BME280;36399;51.444;-2.018;2022-08-19T11:41:37;100646.19;;;23.51;100.00
43436;BME280;36399;51.444;-2.018;2022-08-19T11:44:03;100642.47;;;25.09;100.00
43436;BME280;36399;51.444;-2.018;2022-08-19T11:46:30;100634.63;;;24.63;100.00
43436;BME280;36399;51.444;-2.018;2022-08-19T11:48:58;100643.75;;;25.40;100.00
43436;BME280;36399;51.444;-2.018;2022-08-19T11:51:27;100634.75;;;25.61;100.00
43436;BME280;36399;51.444;-2.018;2022-08-19T11:53:54;100640.47;;;24.72;100.00
43436;BME280;36399;51.444;-2.018;2022-08-19T11:56:21;100643.47;;;24.65;100.00
43436;BME280;36399;51.444;-2.018;2022-08-19T11:58:48;100644.75;;;24.98;100.00
43436;BME280;36399;51.444;-2.018;2022-08-19T12:01:18;100648.06;;;24.17;100.00
43436;BME280;36399;51.444;-2.018;2022-08-19T12:03:46;100638.56;;;24.32;100.00
43436;BME280;36399;51.444;-2.018;2022-08-19T12:06:21;100621.72;;;25.52;100.00
43436;BME280;36399;51.444;-2.018;2022-08-19T12:08:55;100624.81;;;26.56;100.00
43436;BME280;36399;51.444;-2.018;2022-08-19T12:11:23;100640.44;;;25.74;100.00
43436;BME280;36399;51.444;-2.018;2022-08-19T12:13:50;100637.56;;;24.77;100.00
43436;BME280;36399;51.444;-2.018;2022-08-19T12:16:22;100633.38;;;24.28;100.00
43436;BME280;36399;51.444;-2.018;2022-08-19T12:18:49;100641.16;;;23.17;100.00
43436;BME280;36399;51.444;-2.018;2022-08-19T12:21:20;100636.34;;;23.26;100.00
43436;BME280;36399;51.444;-2.018;2022-08-19T12:23:48;100642.53;;;24.22;100.00
43436;BME280;36399;51.444;-2.018;2022-08-19T12:26:16;100637.22;;;23.75;100.00
43436;BME280;36399;51.444;-2.018;2022-08-19T12:28:42;100643.47;;;22.22;100.00
43436;BME280;36399;51.444;-2.018;2022-08-19T12:31:09;100642.78;;;21.87;100.00
43436;BME280;36399;51.444;-2.018;2022-08-19T12:33:38;100650.91;;;21.21;100.00
43436;BME280;36399;51.444;-2.018;2022-08-19T12:36:06;100644.84;;;21.14;100.00
43436;BME280;36399;51.444;-2.018;2022-08-19T12:38:33;100656.84;;;20.99;100.00
43436;BME280;36399;51.444;-2.018;2022-08-19T12:41:00;100649.63;;;21.03;100.00
43436;BME280;36399;51.444;-2.018;2022-08-19T12:43:26;100650.44;;;21.05;100.00
43436;BME280;36399;51.444;-2.018;2022-08-19T12:45:52;100653.47;;;21.25;100.00